sensor_id;sensor_type;location;lat;lon;timestamp;pressure;altitude;pressure_sealevel;temperature;humidity
27040;BME280;14589;51.578;7.306;2023-05-02T04:00:33;101490.28;;;11.11;84.28
27040;BME280;14589;51.578;7.306;2023-05-02T04:03:09;101495.16;;;11.17;83.87
27040;BME280;14589;51.578;7.306;2023-05-02T04:05:44;101489.72;;;11.17;83.87
27040;BME280;14589;51.578;7.306;2023-05-02T04:08:17;101500.72;;;11.15;84.30
27040;BME280;14589;51.578;7.306;2023-05-02T04:10:50;101508.44;;;11.20;83.93
27040;BME280;14589;51.578;7.306;2023-05-02T04:13:22;101508.56;;;11.18;83.99
27040;BME280;14589;51.578;7.306;2023-05-02T04:15:53;101506.81;;;11.08;83.53
27040;BME280;14589;51.578;7.306;2023-05-02T04:18:26;101515.69;;;11.10;83.62
27040;BME280;14589;51.578;7.306;2023-05-02T04:20:57;101520.84;;;11.13;83.93
27040;BME280;14589;51.578;7.306;2023-05-02T04:23:28;101524.81;;;11.09;84.71
27040;BME280;14589;51.578;7.306;2023-05-02T04:26:03;101513.50;;;11.04;85.45
27040;BME280;14589;51.578;7.306;2023-05-02T04:28:49;101519.19;;;11.01;84.95
27040;BME280;14589;51.578;7.306;2023-05-02T04:31:20;101520.97;;;10.90;85.41
27040;BME280;14589;51.578;7.306;2023-05-02T04:33:51;101529.25;;;10.89;85.79
27040;BME280;14589;51.578;7.306;2023-05-02T04:36:26;101538.25;;;10.89;86.43
27040;BME280;14589;51.578;7.306;2023-05-02T04:38:58;101532.81;;;10.89;86.29
27040;BME280;14589;51.578;7.306;2023-05-02T04:41:29;101537.13;;;10.92;86.48
27040;BME280;14589;51.578;7.306;2023-05-02T04:44:04;101536.72;;;10.97;86.68
27040;BME280;14589;51.578;7.306;2023-05-02T04:46:34;101540.56;;;10.94;87.34
27040;BME280;14589;51.578;7.306;2023-05-02T04:49:05;101541.88;;;11.00;86.32
27040;BME280;14589;51.578;7.306;2023-05-02T04:51:35;101554.75;;;10.98;87.25
27040;BME280;14589;51.578;7.306;2023-05-02T04:54:06;101552.03;;;10.98;87.26
27040;BME280;14589;51.578;7.306;2023-05-02T04:56:37;101566.06;;;11.03;87.20
27040;BME280;14589;51.578;7.306;2023-05-02T04:59:07;101566.81;;;11.05;87.62
27040;BME280;14589;51.578;7.306;2023-05-02T05:01:38;101567.03;;;11.02;87.54
27040;BME280;14589;51.578;7.306;2023-05-02T05:04:10;101575.19;;;11.02;87.64
27040;BME280;14589;51.578;7.306;2023-05-02T05:06:41;101577.91;;;11.02;87.52
27040;BME280;14589;51.578;7.306;2023-05-02T05:09:12;101580.88;;;10.99;88.00
27040;BME280;14589;51.578;7.306;2023-05-02T05:11:42;101583.34;;;10.70;88.93
27040;BME280;14589;51.578;7.306;2023-05-02T05:14:14;101593.03;;;10.83;88.52
27040;BME280;14589;51.578;7.306;2023-05-02T05:16:47;101582.94;;;10.74;88.91
27040;BME280;14589;51.578;7.306;2023-05-02T05:19:18;101602.44;;;10.68;89.99
27040;BME280;14589;51.578;7.306;2023-05-02T05:21:49;101615.19;;;10.57;89.69
27040;BME280;14589;51.578;7.306;2023-05-02T05:24:21;101614.31;;;10.56;89.89
27040;BME280;14589;51.578;7.306;2023-05-02T05:26:54;101607.56;;;10.50;90.21
27040;BME280;14589;51.578;7.306;2023-05-02T05:29:24;101621.47;;;10.57;89.53
27040;BME280;14589;51.578;7.306;2023-05-02T05:31:54;101630.84;;;10.53;89.82
27040;BME280;14589;51.578;7.306;2023-05-02T05:34:25;101613.34;;;10.46;89.81
27040;BME280;14589;51.578;7.306;2023-05-02T05:36:59;101635.06;;;10.46;89.55
27040;BME280;14589;51.578;7.306;2023-05-02T05:39:30;101638.00;;;10.54;89.34
27040;BME280;14589;51.578;7.306;2023-05-02T05:42:02;101645.63;;;10.60;89.17
27040;BME280;14589;51.578;7.306;2023-05-02T05:44:38;101641.44;;;10.56;89.03
27040;BME280;14589;51.578;7.306;2023-05-02T05:47:09;101643.94;;;10.48;88.22
27040;BME280;14589;51.578;7.306;2023-05-02T05:49:39;101654.28;;;10.54;88.61
27040;BME280;14589;51.578;7.306;2023-05-02T05:52:12;101652.66;;;10.51;88.62
27040;BME280;14589;51.578;7.306;2023-05-02T05:54:43;101666.34;;;10.61;88.75
27040;BME280;14589;51.578;7.306;2023-05-02T05:57:13;101656.72;;;10.57;88.57
27040;BME280;14589;51.578;7.306;2023-05-02T05:59:44;101658.34;;;10.60;88.05
27040;BME280;14589;51.578;7.306;2023-05-02T06:02:15;101649.56;;;10.56;88.17
27040;BME280;14589;51.578;7.306;2023-05-02T06:04:45;101672.53;;;10.52;87.17
27040;BME280;14589;51.578;7.306;2023-05-02T06:07:17;101658.22;;;10.50;87.58
27040;BME280;14589;51.578;7.306;2023-05-02T06:09:48;101677.31;;;10.60;87.18
27040;BME280;14589;51.578;7.306;2023-05-02T06:12:19;101671.78;;;10.61;87.49
27040;BME280;14589;51.578;7.306;2023-05-02T06:14:50;101682.13;;;10.67;85.69
27040;BME280;14589;51.578;7.306;2023-05-02T06:17:21;101682.84;;;10.69;86.33
27040;BME280;14589;51.578;7.306;2023-05-02T06:19:53;101682.97;;;10.68;86.43
27040;BME280;14589;51.578;7.306;2023-05-02T06:22:24;101677.19;;;10.72;86.52
27040;BME280;14589;51.578;7.306;2023-05-02T06:24:55;101688.75;;;10.74;85.93
27040;BME280;14589;51.578;7.306;2023-05-02T06:27:25;101689.72;;;10.84;86.23
27040;BME280;14589;51.578;7.306;2023-05-02T06:29:55;101694.25;;;10.95;85.90
27040;BME280;14589;51.578;7.306;2023-05-02T06:32:30;101705.22;;;10.93;84.92
27040;BME280;14589;51.578;7.306;2023-05-02T06:35:01;101704.38;;;11.04;85.70
27040;BME280;14589;51.578;7.306;2023-05-02T06:37:32;101710.50;;;11.06;85.07
27040;BME280;14589;51.578;7.306;2023-05-02T06:40:04;101707.72;;;10.97;83.06
27040;BME280;14589;51.578;7.306;2023-05-02T06:42:34;101711.88;;;11.01;83.94
27040;BME280;14589;51.578;7.306;2023-05-02T06:45:05;101721.75;;;11.02;84.15
27040;BME280;14589;51.578;7.306;2023-05-02T06:47:36;101729.28;;;10.98;83.45
27040;BME280;14589;51.578;7.306;2023-05-02T06:50:07;101733.59;;;11.01;84.04
27040;BME280;14589;51.578;7.306;2023-05-02T06:52:37;101729.03;;;11.01;83.40
27040;BME280;14589;51.578;7.306;2023-05-02T06:55:08;101731.88;;;11.00;83.62
27040;BME280;14589;51.578;7.306;2023-05-02T06:57:38;101748.41;;;10.97;82.75
27040;BME280;14589;51.578;7.306;2023-05-02T07:00:09;101744.44;;;11.01;83.26
27040;BME280;14589;51.578;7.306;2023-05-02T07:02:40;101743.97;;;10.95;83.24
27040;BME280;14589;51.578;7.306;2023-05-02T07:05:10;101743.97;;;10.95;83.07
27040;BME280;14589;51.578;7.306;2023-05-02T07:07:41;101743.38;;;10.81;81.95
27040;BME280;14589;51.578;7.306;2023-05-02T07:10:12;101763.72;;;10.86;82.61
27040;BME280;14589;51.578;7.306;2023-05-02T07:12:42;101753.00;;;10.85;82.49
27040;BME280;14589;51.578;7.306;2023-05-02T07:15:13;101766.06;;;10.91;82.93
27040;BME280;14589;51.578;7.306;2023-05-02T07:17:43;101769.16;;;10.75;82.77
27040;BME280;14589;51.578;7.306;2023-05-02T07:20:13;101763.25;;;10.59;83.32
27040;BME280;14589;51.578;7.306;2023-05-02T07:22:45;101784.06;;;10.70;83.09
27040;BME280;14589;51.578;7.306;2023-05-02T07:25:15;101792.69;;;10.75;83.56
27040;BME280;14589;51.578;7.306;2023-05-02T07:27:46;101793.19;;;10.69;83.48
27040;BME280;14589;51.578;7.306;2023-05-02T07:30:16;101803.69;;;10.62;83.32
27040;BME280;14589;51.578;7.306;2023-05-02T07:32:47;101818.34;;;10.48;83.96
27040;BME280;14589;51.578;7.306;2023-05-02T07:35:17;101816.00;;;10.44;84.82
27040;BME280;14589;51.578;7.306;2023-05-02T07:37:47;101835.94;;;9.97;84.53
27040;BME280;14589;51.578;7.306;2023-05-02T07:40:18;101842.41;;;9.83;84.25
27040;BME280;14589;51.578;7.306;2023-05-02T07:42:48;101839.44;;;9.75;84.76
27040;BME280;14589;51.578;7.306;2023-05-02T07:45:19;101839.81;;;9.58;84.53
27040;BME280;14589;51.578;7.306;2023-05-02T07:47:50;101835.97;;;9.49;85.64
27040;BME280;14589;51.578;7.306;2023-05-02T07:50:21;101850.31;;;9.62;85.97
27040;BME280;14589;51.578;7.306;2023-05-02T07:52:54;101853.94;;;9.50;84.36
27040;BME280;14589;51.578;7.306;2023-05-02T07:55:24;101852.47;;;9.57;85.19
27040;BME280;14589;51.578;7.306;2023-05-02T07:57:59;101870.53;;;9.69;84.67
27040;BME280;14589;51.578;7.306;2023-05-02T08:00:29;101865.34;;;9.43;84.19
27040;BME280;14589;51.578;7.306;2023-05-02T08:03:00;101863.38;;;9.45;84.80
27040;BME280;14589;51.578;7.306;2023-05-02T08:05:31;101882.72;;;9.51;84.46
27040;BME280;14589;51.578;7.306;2023-05-02T08:08:01;101881.13;;;9.49;84.00
27040;BME280;14589;51.578;7.306;2023-05-02T08:10:32;101891.97;;;9.49;84.80
27040;BME280;14589;51.578;7.306;2023-05-02T08:13:02;101887.06;;;9.54;83.45
27040;BME280;14589;51.578;7.306;2023-05-02T08:15:32;101883.75;;;9.50;83.04
27040;BME280;14589;51.578;7.306;2023-05-02T08:18:03;101895.28;;;9.52;83.29
27040;BME280;14589;51.578;7.306;2023-05-02T08:20:33;101900.25;;;9.58;83.04
27040;BME280;14589;51.578;7.306;2023-05-02T08:23:03;101908.13;;;9.74;83.31
27040;BME280;14589;51.578;7.306;2023-05-02T08:25:34;101908.69;;;9.66;82.03
27040;BME280;14589;51.578;7.306;2023-05-02T08:28:04;101900.09;;;9.72;81.46
27040;BME280;14589;51.578;7.306;2023-05-02T08:30:34;101908.69;;;9.66;80.91
27040;BME280;14589;51.578;7.306;2023-05-02T08:33:05;101905.94;;;9.79;81.69
27040;BME280;14589;51.578;7.306;2023-05-02T08:35:35;101904.53;;;9.97;81.75
27040;BME280;14589;51.578;7.306;2023-05-02T08:38:05;101909.78;;;9.88;79.41
27040;BME280;14589;51.578;7.306;2023-05-02T08:40:37;101913.50;;;9.87;78.54
27040;BME280;14589;51.578;7.306;2023-05-02T08:43:10;101935.09;;;9.99;78.31
27040;BME280;14589;51.578;7.306;2023-05-02T08:45:42;101932.91;;;10.04;77.95
27040;BME280;14589;51.578;7.306;2023-05-02T08:48:13;101934.50;;;9.83;79.10
27040;BME280;14589;51.578;7.306;2023-05-02T08:50:46;101935.84;;;9.78;78.32
27040;BME280;14589;51.578;7.306;2023-05-02T08:53:17;101932.91;;;9.81;77.75
27040;BME280;14589;51.578;7.306;2023-05-02T08:55:48;101947.84;;;9.86;78.58
27040;BME280;14589;51.578;7.306;2023-05-02T08:58:18;101937.38;;;9.69;76.45
27040;BME280;14589;51.578;7.306;2023-05-02T09:00:49;101948.63;;;9.75;79.48
27040;BME280;14589;51.578;7.306;2023-05-02T09:03:34;101962.13;;;9.88;78.31
27040;BME280;14589;51.578;7.306;2023-05-02T09:06:08;101972.84;;;9.90;77.99
27040;BME280;14589;51.578;7.306;2023-05-02T09:08:39;101974.66;;;10.02;78.19
27040;BME280;14589;51.578;7.306;2023-05-02T09:11:11;101981.19;;;9.99;78.21
27040;BME280;14589;51.578;7.306;2023-05-02T09:13:49;101977.75;;;9.85;77.54
27040;BME280;14589;51.578;7.306;2023-05-02T09:16:22;101981.38;;;9.96;77.49
27040;BME280;14589;51.578;7.306;2023-05-02T09:18:55;101970.59;;;10.07;76.65
27040;BME280;14589;51.578;7.306;2023-05-02T09:21:35;101985.28;;;10.29;76.41
27040;BME280;14589;51.578;7.306;2023-05-02T09:24:20;101977.69;;;10.34;76.04
27040;BME280;14589;51.578;7.306;2023-05-02T09:26:58;101971.25;;;10.59;76.40
27040;BME280;14589;51.578;7.306;2023-05-02T09:29:29;101986.44;;;10.72;75.72
27040;BME280;14589;51.578;7.306;2023-05-02T09:32:06;101979.78;;;10.76;74.62
27040;BME280;14589;51.578;7.306;2023-05-02T09:34:37;101990.34;;;10.92;75.20
27040;BME280;14589;51.578;7.306;2023-05-02T09:37:08;101985.41;;;10.97;74.28
27040;BME280;14589;51.578;7.306;2023-05-02T09:39:40;101993.84;;;10.81;74.33
27040;BME280;14589;51.578;7.306;2023-05-02T09:42:10;102002.97;;;10.80;73.86
27040;BME280;14589;51.578;7.306;2023-05-02T09:44:41;101996.31;;;10.73;72.38
27040;BME280;14589;51.578;7.306;2023-05-02T09:47:23;102002.97;;;10.80;73.61
27040;BME280;14589;51.578;7.306;2023-05-02T09:49:54;102007.31;;;10.83;72.79
27040;BME280;14589;51.578;7.306;2023-05-02T09:52:24;102009.06;;;10.84;72.43
27040;BME280;14589;51.578;7.306;2023-05-02T09:54:55;102013.72;;;10.82;72.03
27040;BME280;14589;51.578;7.306;2023-05-02T09:57:38;102018.31;;;10.92;71.37
27040;BME280;14589;51.578;7.306;2023-05-02T10:00:11;102018.59;;;11.01;70.81
27040;BME280;14589;51.578;7.306;2023-05-02T10:02:42;102015.03;;;11.11;71.24
27040;BME280;14589;51.578;7.306;2023-05-02T10:05:13;102010.56;;;10.99;69.65
27040;BME280;14589;51.578;7.306;2023-05-02T10:07:46;102028.81;;;10.97;69.64
27040;BME280;14589;51.578;7.306;2023-05-02T10:10:17;102026.44;;;10.92;69.62
27040;BME280;14589;51.578;7.306;2023-05-02T10:12:49;102035.75;;;11.12;69.58
27040;BME280;14589;51.578;7.306;2023-05-02T10:15:24;102027.38;;;11.04;67.25
27040;BME280;14589;51.578;7.306;2023-05-02T10:17:58;102036.81;;;10.99;66.63
27040;BME280;14589;51.578;7.306;2023-05-02T10:20:36;102037.66;;;10.88;66.13
27040;BME280;14589;51.578;7.306;2023-05-02T10:23:09;102034.13;;;10.99;67.19
27040;BME280;14589;51.578;7.306;2023-05-02T10:25:41;102021.56;;;11.09;67.31
27040;BME280;14589;51.578;7.306;2023-05-02T10:28:13;102025.41;;;11.17;67.38
27040;BME280;14589;51.578;7.306;2023-05-02T10:30:44;102031.97;;;11.26;67.39
27040;BME280;14589;51.578;7.306;2023-05-02T10:33:16;102034.78;;;11.24;66.49
27040;BME280;14589;51.578;7.306;2023-05-02T10:35:48;102038.63;;;11.22;65.43
27040;BME280;14589;51.578;7.306;2023-05-02T10:38:20;102040.09;;;11.26;66.66
27040;BME280;14589;51.578;7.306;2023-05-02T10:41:13;102036.31;;;11.40;66.00
27040;BME280;14589;51.578;7.306;2023-05-02T10:43:46;102037.56;;;11.58;66.32
27040;BME280;14589;51.578;7.306;2023-05-02T10:46:37;102034.72;;;11.59;64.89
27040;BME280;14589;51.578;7.306;2023-05-02T10:49:10;102040.13;;;11.48;64.30
27040;BME280;14589;51.578;7.306;2023-05-02T10:51:42;102044.13;;;11.78;64.47
27040;BME280;14589;51.578;7.306;2023-05-02T10:59:39;102029.94;;;12.39;62.22
27040;BME280;14589;51.578;7.306;2023-05-02T11:05:00;102037.50;;;12.88;58.88
27040;BME280;14589;51.578;7.306;2023-05-02T11:07:36;102041.97;;;13.10;57.50
27040;BME280;14589;51.578;7.306;2023-05-02T11:12:56;102032.94;;;13.51;55.89
27040;BME280;14589;51.578;7.306;2023-05-02T11:18:02;102031.88;;;14.13;55.20
27040;BME280;14589;51.578;7.306;2023-05-02T11:20:37;102035.47;;;14.23;52.56
27040;BME280;14589;51.578;7.306;2023-05-02T11:23:19;102040.88;;;14.13;51.97
27040;BME280;14589;51.578;7.306;2023-05-02T11:25:55;102041.50;;;14.27;51.40
27040;BME280;14589;51.578;7.306;2023-05-02T11:28:37;102045.28;;;13.86;51.78
27040;BME280;14589;51.578;7.306;2023-05-02T11:34:01;102033.81;;;13.92;50.63
27040;BME280;14589;51.578;7.306;2023-05-02T11:36:33;102044.34;;;14.06;50.33
27040;BME280;14589;51.578;7.306;2023-05-02T11:39:04;102038.75;;;13.67;51.12
27040;BME280;14589;51.578;7.306;2023-05-02T11:41:47;102041.09;;;13.82;49.94
27040;BME280;14589;51.578;7.306;2023-05-02T11:44:20;102046.25;;;13.85;50.41
27040;BME280;14589;51.578;7.306;2023-05-02T11:46:50;102047.34;;;13.63;50.63
27040;BME280;14589;51.578;7.306;2023-05-02T11:49:22;102041.69;;;13.85;51.31
27040;BME280;14589;51.578;7.306;2023-05-02T11:51:52;102031.09;;;14.01;51.09
27040;BME280;14589;51.578;7.306;2023-05-02T11:54:22;102042.66;;;14.24;50.65
27040;BME280;14589;51.578;7.306;2023-05-02T11:56:53;102046.09;;;14.16;49.15
27040;BME280;14589;51.578;7.306;2023-05-02T11:59:26;102055.31;;;13.85;48.78
27040;BME280;14589;51.578;7.306;2023-05-02T12:01:57;102054.13;;;14.18;49.53
27040;BME280;14589;51.578;7.306;2023-05-02T12:04:27;102046.47;;;14.02;48.39
27040;BME280;14589;51.578;7.306;2023-05-02T12:06:57;102055.19;;;13.96;48.22
27040;BME280;14589;51.578;7.306;2023-05-02T12:09:28;102062.00;;;14.11;46.73
27040;BME280;14589;51.578;7.306;2023-05-02T12:11:58;102063.44;;;14.15;45.60
27040;BME280;14589;51.578;7.306;2023-05-02T12:14:29;102062.53;;;13.65;45.84
27040;BME280;14589;51.578;7.306;2023-05-02T12:17:02;102071.13;;;13.91;46.49
27040;BME280;14589;51.578;7.306;2023-05-02T12:19:33;102067.34;;;14.23;44.78
27040;BME280;14589;51.578;7.306;2023-05-02T12:22:06;102057.66;;;14.39;44.83
27040;BME280;14589;51.578;7.306;2023-05-02T12:24:37;102061.72;;;14.74;43.90
27040;BME280;14589;51.578;7.306;2023-05-02T12:27:15;102063.56;;;14.83;43.46
27040;BME280;14589;51.578;7.306;2023-05-02T12:29:47;102069.63;;;14.86;42.75
27040;BME280;14589;51.578;7.306;2023-05-02T12:32:32;102079.13;;;14.92;41.03
27040;BME280;14589;51.578;7.306;2023-05-02T12:35:03;102079.78;;;15.32;39.99
27040;BME280;14589;51.578;7.306;2023-05-02T12:37:33;102075.00;;;15.44;39.25
27040;BME280;14589;51.578;7.306;2023-05-02T12:40:14;102083.06;;;15.65;39.50
27040;BME280;14589;51.578;7.306;2023-05-02T12:42:58;102083.63;;;15.68;39.01
27040;BME280;14589;51.578;7.306;2023-05-02T12:45:30;102092.22;;;15.83;38.18
27040;BME280;14589;51.578;7.306;2023-05-02T12:50:47;102075.06;;;17.60;34.91
27040;BME280;14589;51.578;7.306;2023-05-02T12:53:37;102089.00;;;18.34;32.87
27040;BME280;14589;51.578;7.306;2023-05-02T12:56:08;102081.81;;;18.33;34.47
27040;BME280;14589;51.578;7.306;2023-05-02T12:58:44;102088.91;;;18.52;32.57
27040;BME280;14589;51.578;7.306;2023-05-02T13:01:15;102081.16;;;19.46;32.14
27040;BME280;14589;51.578;7.306;2023-05-02T13:03:45;102087.88;;;20.07;31.94
27040;BME280;14589;51.578;7.306;2023-05-02T13:06:17;102082.78;;;20.74;30.76
27040;BME280;14589;51.578;7.306;2023-05-02T13:08:47;102083.25;;;20.54;27.77
27040;BME280;14589;51.578;7.306;2023-05-02T13:11:18;102087.19;;;20.52;28.17
27040;BME280;14589;51.578;7.306;2023-05-02T13:13:49;102080.78;;;19.33;28.66
27040;BME280;14589;51.578;7.306;2023-05-02T13:16:20;102087.41;;;19.95;29.27
27040;BME280;14589;51.578;7.306;2023-05-02T13:18:50;102091.88;;;20.74;27.87
27040;BME280;14589;51.578;7.306;2023-05-02T13:21:20;102094.63;;;20.43;26.63
27040;BME280;14589;51.578;7.306;2023-05-02T13:23:51;102085.88;;;21.76;25.45
27040;BME280;14589;51.578;7.306;2023-05-02T13:26:22;102084.94;;;22.43;24.07
27040;BME280;14589;51.578;7.306;2023-05-02T13:28:52;102089.41;;;22.29;24.65
27040;BME280;14589;51.578;7.306;2023-05-02T13:31:23;102086.06;;;21.23;26.12
27040;BME280;14589;51.578;7.306;2023-05-02T13:33:53;102091.44;;;22.21;25.17
27040;BME280;14589;51.578;7.306;2023-05-02T13:36:24;102084.88;;;21.55;26.38
27040;BME280;14589;51.578;7.306;2023-05-02T13:38:54;102086.97;;;21.15;27.51
27040;BME280;14589;51.578;7.306;2023-05-02T13:41:25;102090.78;;;21.06;27.64
27040;BME280;14589;51.578;7.306;2023-05-02T13:43:55;102088.66;;;21.39;27.63
27040;BME280;14589;51.578;7.306;2023-05-02T13:46:25;102089.94;;;22.54;25.99
27040;BME280;14589;51.578;7.306;2023-05-02T13:48:56;102091.34;;;22.79;25.68
27040;BME280;14589;51.578;7.306;2023-05-02T13:51:26;102088.84;;;23.48;24.25
27040;BME280;14589;51.578;7.306;2023-05-02T13:53:57;102085.28;;;24.16;24.46
27040;BME280;14589;51.578;7.306;2023-05-02T13:56:28;102089.09;;;24.56;23.16
27040;BME280;14589;51.578;7.306;2023-05-02T13:58:58;102094.50;;;23.61;23.46
27040;BME280;14589;51.578;7.306;2023-05-02T14:01:28;102093.31;;;23.28;23.89
27040;BME280;14589;51.578;7.306;2023-05-02T14:03:59;102095.34;;;22.26;25.21
27040;BME280;14589;51.578;7.306;2023-05-02T14:06:30;102089.59;;;21.09;26.33
27040;BME280;14589;51.578;7.306;2023-05-02T14:09:01;102089.66;;;20.47;27.72
27040;BME280;14589;51.578;7.306;2023-05-02T14:11:31;102092.28;;;19.69;28.93
27040;BME280;14589;51.578;7.306;2023-05-02T14:14:01;102091.47;;;19.60;29.30
27040;BME280;14589;51.578;7.306;2023-05-02T14:16:32;102097.88;;;20.08;29.04
27040;BME280;14589;51.578;7.306;2023-05-02T14:19:04;102095.56;;;20.36;29.76
27040;BME280;14589;51.578;7.306;2023-05-02T14:21:34;102084.34;;;19.82;29.32
27040;BME280;14589;51.578;7.306;2023-05-02T14:24:07;102086.81;;;19.61;28.49
27040;BME280;14589;51.578;7.306;2023-05-02T14:26:38;102076.81;;;20.23;27.66
27040;BME280;14589;51.578;7.306;2023-05-02T14:29:08;102077.69;;;20.24;28.09
27040;BME280;14589;51.578;7.306;2023-05-02T14:31:38;102083.81;;;18.57;30.67
27040;BME280;14589;51.578;7.306;2023-05-02T14:34:09;102092.94;;;18.24;30.69
27040;BME280;14589;51.578;7.306;2023-05-02T14:36:39;102088.59;;;17.79;32.00
27040;BME280;14589;51.578;7.306;2023-05-02T14:39:09;102091.16;;;17.81;32.02
27040;BME280;14589;51.578;7.306;2023-05-02T14:41:41;102084.91;;;18.80;31.38
27040;BME280;14589;51.578;7.306;2023-05-02T14:44:12;102084.94;;;19.37;30.74
27040;BME280;14589;51.578;7.306;2023-05-02T14:46:42;102092.59;;;19.82;29.92
27040;BME280;14589;51.578;7.306;2023-05-02T14:49:12;102095.28;;;20.53;29.07
27040;BME280;14589;51.578;7.306;2023-05-02T14:51:43;102092.44;;;19.75;29.48
27040;BME280;14589;51.578;7.306;2023-05-02T14:54:16;102093.19;;;19.61;29.82
27040;BME280;14589;51.578;7.306;2023-05-02T14:56:47;102091.03;;;18.66;31.44
27040;BME280;14589;51.578;7.306;2023-05-02T14:59:17;102095.81;;;18.14;32.17
27040;BME280;14589;51.578;7.306;2023-05-02T15:01:47;102102.97;;;17.55;32.45
27040;BME280;14589;51.578;7.306;2023-05-02T15:04:18;102082.78;;;16.95;33.84
27040;BME280;14589;51.578;7.306;2023-05-02T15:06:48;102082.63;;;17.14;33.18
27040;BME280;14589;51.578;7.306;2023-05-02T15:09:23;102092.09;;;17.02;34.15
27040;BME280;14589;51.578;7.306;2023-05-02T15:11:55;102081.09;;;16.67;34.68
27040;BME280;14589;51.578;7.306;2023-05-02T15:14:25;102094.13;;;16.55;35.03
27040;BME280;14589;51.578;7.306;2023-05-02T15:16:56;102097.97;;;16.44;35.29
27040;BME280;14589;51.578;7.306;2023-05-02T15:19:26;102094.38;;;16.16;35.63
27040;BME280;14589;51.578;7.306;2023-05-02T15:21:57;102094.72;;;16.31;35.62
27040;BME280;14589;51.578;7.306;2023-05-02T15:24:27;102088.16;;;16.42;35.18
27040;BME280;14589;51.578;7.306;2023-05-02T15:26:58;102095.97;;;16.37;35.87
27040;BME280;14589;51.578;7.306;2023-05-02T15:29:28;102095.63;;;16.49;35.30
27040;BME280;14589;51.578;7.306;2023-05-02T15:31:58;102086.88;;;16.18;36.24
27040;BME280;14589;51.578;7.306;2023-05-02T15:34:29;102100.59;;;16.36;36.00
27040;BME280;14589;51.578;7.306;2023-05-02T15:36:59;102100.81;;;15.98;36.13
27040;BME280;14589;51.578;7.306;2023-05-02T15:39:30;102104.75;;;15.86;36.66
27040;BME280;14589;51.578;7.306;2023-05-02T15:42:04;102090.28;;;15.93;36.65
27040;BME280;14589;51.578;7.306;2023-05-02T15:44:35;102097.28;;;15.68;36.05
27040;BME280;14589;51.578;7.306;2023-05-02T15:47:06;102096.06;;;15.15;36.30
27040;BME280;14589;51.578;7.306;2023-05-02T15:49:37;102109.00;;;15.42;37.52
27040;BME280;14589;51.578;7.306;2023-05-02T15:52:07;102101.22;;;15.56;36.49
27040;BME280;14589;51.578;7.306;2023-05-02T15:54:38;102108.59;;;15.08;36.42
27040;BME280;14589;51.578;7.306;2023-05-02T15:57:08;102109.31;;;14.81;37.07
27040;BME280;14589;51.578;7.306;2023-05-02T15:59:41;102109.88;;;14.84;37.69
27040;BME280;14589;51.578;7.306;2023-05-02T16:02:12;102116.34;;;14.74;37.35
27040;BME280;14589;51.578;7.306;2023-05-02T16:04:42;102120.22;;;15.00;37.79
27040;BME280;14589;51.578;7.306;2023-05-02T16:07:13;102118.22;;;14.92;37.34
27040;BME280;14589;51.578;7.306;2023-05-02T16:09:43;102125.97;;;14.68;37.71
27040;BME280;14589;51.578;7.306;2023-05-02T16:12:14;102126.22;;;14.65;37.59
27040;BME280;14589;51.578;7.306;2023-05-02T16:14:44;102125.06;;;14.58;36.89
27040;BME280;14589;51.578;7.306;2023-05-02T16:17:15;102124.50;;;14.64;37.08
27040;BME280;14589;51.578;7.306;2023-05-02T16:19:45;102124.38;;;14.66;38.50
27040;BME280;14589;51.578;7.306;2023-05-02T16:22:15;102124.50;;;14.64;37.85
27040;BME280;14589;51.578;7.306;2023-05-02T16:24:46;102143.72;;;14.43;37.64
27040;BME280;14589;51.578;7.306;2023-05-02T16:27:16;102123.19;;;14.58;37.32
27040;BME280;14589;51.578;7.306;2023-05-02T16:29:46;102121.34;;;14.59;37.75
27040;BME280;14589;51.578;7.306;2023-05-02T16:32:17;102120.50;;;14.68;38.07
27040;BME280;14589;51.578;7.306;2023-05-02T16:34:48;102130.50;;;14.48;37.14
27040;BME280;14589;51.578;7.306;2023-05-02T16:37:18;102137.31;;;14.24;37.25
27040;BME280;14589;51.578;7.306;2023-05-02T16:39:49;102128.38;;;14.22;37.31
27040;BME280;14589;51.578;7.306;2023-05-02T16:42:19;102128.72;;;13.98;36.51
27040;BME280;14589;51.578;7.306;2023-05-02T16:44:49;102131.41;;;13.88;37.06
27040;BME280;14589;51.578;7.306;2023-05-02T16:47:20;102140.84;;;13.84;37.36
27040;BME280;14589;51.578;7.306;2023-05-02T16:49:54;102146.91;;;13.88;37.36
27040;BME280;14589;51.578;7.306;2023-05-02T16:52:26;102131.78;;;13.84;37.60
27040;BME280;14589;51.578;7.306;2023-05-02T16:54:56;102137.28;;;13.63;37.86
27040;BME280;14589;51.578;7.306;2023-05-02T16:57:27;102134.03;;;13.69;37.66
27040;BME280;14589;51.578;7.306;2023-05-02T16:59:57;102145.84;;;13.79;37.90
27040;BME280;14589;51.578;7.306;2023-05-02T17:02:28;102150.84;;;13.53;38.59
27040;BME280;14589;51.578;7.306;2023-05-02T17:04:58;102148.44;;;13.60;38.61
27040;BME280;14589;51.578;7.306;2023-05-02T17:07:28;102144.97;;;13.58;38.54
27040;BME280;14589;51.578;7.306;2023-05-02T17:09:59;102157.97;;;13.45;38.21
27040;BME280;14589;51.578;7.306;2023-05-02T17:12:29;102141.31;;;13.27;39.01
27040;BME280;14589;51.578;7.306;2023-05-02T17:15:00;102140.94;;;13.31;39.45
27040;BME280;14589;51.578;7.306;2023-05-02T17:17:31;102146.06;;;13.25;39.29
27040;BME280;14589;51.578;7.306;2023-05-02T17:20:01;102142.59;;;13.23;39.10
27040;BME280;14589;51.578;7.306;2023-05-02T17:22:33;102145.84;;;13.17;39.38
27040;BME280;14589;51.578;7.306;2023-05-02T17:25:04;102135.22;;;13.14;40.09
27040;BME280;14589;51.578;7.306;2023-05-02T17:27:36;102145.25;;;13.13;39.31
27040;BME280;14589;51.578;7.306;2023-05-02T17:30:07;102149.53;;;13.16;39.93
27040;BME280;14589;51.578;7.306;2023-05-02T17:32:37;102132.47;;;13.03;40.91